sensor_id;sensor_type;location;lat;lon;timestamp;P1;durP1;ratioP1;P2;durP2;ratioP2
77322;SDS011;66384;51.052;9.850;2023-02-28T00:01:43;5.40;;;2.30;;
77322;SDS011;66384;51.052;9.850;2023-02-28T00:04:13;2.70;;;1.70;;
77322;SDS011;66384;51.052;9.850;2023-02-28T00:06:42;1.90;;;1.50;;
77322;SDS011;66384;51.052;9.850;2023-02-28T00:09:11;2.50;;;1.20;;
77322;SDS011;66384;51.052;9.850;2023-02-28T00:11:40;2.10;;;1.50;;
77322;SDS011;66384;51.052;9.850;2023-02-28T00:14:10;3.50;;;1.80;;
77322;SDS011;66384;51.052;9.850;2023-02-28T00:16:39;5.90;;;2.20;;
77322;SDS011;66384;51.052;9.850;2023-02-28T00:19:08;3.50;;;2.10;;
77322;SDS011;66384;51.052;9.850;2023-02-28T00:21:39;2.90;;;1.70;;
77322;SDS011;66384;51.052;9.850;2023-02-28T00:24:09;2.60;;;1.70;;
77322;SDS011;66384;51.052;9.850;2023-02-28T00:26:38;2.00;;;1.30;;
77322;SDS011;66384;51.052;9.850;2023-02-28T00:29:07;3.10;;;1.90;;
77322;SDS011;66384;51.052;9.850;2023-02-28T00:31:37;2.60;;;1.70;;
77322;SDS011;66384;51.052;9.850;2023-02-28T00:34:06;2.90;;;1.70;;
77322;SDS011;66384;51.052;9.850;2023-02-28T00:36:35;2.40;;;1.70;;
77322;SDS011;66384;51.052;9.850;2023-02-28T00:39:05;3.00;;;2.00;;
77322;SDS011;66384;51.052;9.850;2023-02-28T00:41:34;3.70;;;2.10;;
77322;SDS011;66384;51.052;9.850;2023-02-28T00:44:03;3.40;;;2.10;;
77322;SDS011;66384;51.052;9.850;2023-02-28T00:46:33;3.70;;;2.40;;
77322;SDS011;66384;51.052;9.850;2023-02-28T00:49:02;4.40;;;2.00;;
77322;SDS011;66384;51.052;9.850;2023-02-28T00:51:31;3.40;;;2.00;;
77322;SDS011;66384;51.052;9.850;2023-02-28T00:54:01;3.40;;;2.00;;
77322;SDS011;66384;51.052;9.850;2023-02-28T00:56:30;4.60;;;2.10;;
77322;SDS011;66384;51.052;9.850;2023-02-28T00:58:59;4.50;;;2.10;;
77322;SDS011;66384;51.052;9.850;2023-02-28T01:01:29;3.30;;;1.40;;
77322;SDS011;66384;51.052;9.850;2023-02-28T01:03:58;3.00;;;1.90;;
77322;SDS011;66384;51.052;9.850;2023-02-28T01:06:28;2.70;;;1.30;;
77322;SDS011;66384;51.052;9.850;2023-02-28T01:08:58;2.40;;;1.60;;
77322;SDS011;66384;51.052;9.850;2023-02-28T01:11:27;2.30;;;1.60;;
77322;SDS011;66384;51.052;9.850;2023-02-28T01:13:56;1.60;;;1.20;;
77322;SDS011;66384;51.052;9.850;2023-02-28T01:16:26;1.90;;;1.30;;
77322;SDS011;66384;51.052;9.850;2023-02-28T01:18:56;2.60;;;1.40;;
77322;SDS011;66384;51.052;9.850;2023-02-28T01:21:25;1.80;;;1.30;;
77322;SDS011;66384;51.052;9.850;2023-02-28T01:23:57;1.60;;;1.20;;
77322;SDS011;66384;51.052;9.850;2023-02-28T01:26:26;2.00;;;1.30;;
77322;SDS011;66384;51.052;9.850;2023-02-28T01:28:55;2.10;;;1.30;;
77322;SDS011;66384;51.052;9.850;2023-02-28T01:31:25;1.90;;;1.10;;
77322;SDS011;66384;51.052;9.850;2023-02-28T01:33:54;1.60;;;1.00;;
77322;SDS011;66384;51.052;9.850;2023-02-28T01:36:24;1.60;;;1.30;;
77322;SDS011;66384;51.052;9.850;2023-02-28T01:38:53;1.40;;;1.10;;
77322;SDS011;66384;51.052;9.850;2023-02-28T01:41:24;1.10;;;0.90;;
77322;SDS011;66384;51.052;9.850;2023-02-28T01:44:05;2.50;;;1.10;;
77322;SDS011;66384;51.052;9.850;2023-02-28T01:46:54;1.70;;;1.20;;
77322;SDS011;66384;51.052;9.850;2023-02-28T01:49:24;2.10;;;1.50;;
77322;SDS011;66384;51.052;9.850;2023-02-28T01:51:53;2.40;;;1.40;;
77322;SDS011;66384;51.052;9.850;2023-02-28T01:54:25;1.60;;;1.10;;
77322;SDS011;66384;51.052;9.850;2023-02-28T01:56:58;2.50;;;1.30;;
77322;SDS011;66384;51.052;9.850;2023-02-28T01:59:30;1.90;;;1.20;;
77322;SDS011;66384;51.052;9.850;2023-02-28T02:02:03;1.50;;;1.10;;
77322;SDS011;66384;51.052;9.850;2023-02-28T02:04:34;1.60;;;1.20;;
77322;SDS011;66384;51.052;9.850;2023-02-28T02:07:09;1.30;;;1.10;;
77322;SDS011;66384;51.052;9.850;2023-02-28T02:09:40;1.50;;;1.20;;
77322;SDS011;66384;51.052;9.850;2023-02-28T02:12:13;1.90;;;1.30;;
77322;SDS011;66384;51.052;9.850;2023-02-28T02:14:53;1.70;;;1.30;;
77322;SDS011;66384;51.052;9.850;2023-02-28T02:17:34;2.00;;;1.40;;
77322;SDS011;66384;51.052;9.850;2023-02-28T02:26:23;1.60;;;1.20;;
77322;SDS011;66384;51.052;9.850;2023-02-28T02:29:13;2.50;;;1.30;;
77322;SDS011;66384;51.052;9.850;2023-02-28T02:32:10;2.90;;;1.40;;
77322;SDS011;66384;51.052;9.850;2023-02-28T02:35:00;1.90;;;1.30;;
77322;SDS011;66384;51.052;9.850;2023-02-28T02:37:38;2.10;;;1.50;;
77322;SDS011;66384;51.052;9.850;2023-02-28T02:40:14;2.20;;;1.30;;
77322;SDS011;66384;51.052;9.850;2023-02-28T02:42:49;1.80;;;1.30;;
77322;SDS011;66384;51.052;9.850;2023-02-28T02:45:24;1.80;;;1.30;;
77322;SDS011;66384;51.052;9.850;2023-02-28T02:48:03;1.70;;;1.30;;
77322;SDS011;66384;51.052;9.850;2023-02-28T02:50:36;2.70;;;1.40;;
77322;SDS011;66384;51.052;9.850;2023-02-28T02:53:10;2.00;;;1.40;;
77322;SDS011;66384;51.052;9.850;2023-02-28T02:55:43;1.90;;;1.40;;
77322;SDS011;66384;51.052;9.850;2023-02-28T02:58:20;1.90;;;1.30;;
77322;SDS011;66384;51.052;9.850;2023-02-28T03:00:54;2.00;;;1.30;;
77322;SDS011;66384;51.052;9.850;2023-02-28T03:03:27;1.80;;;1.50;;
77322;SDS011;66384;51.052;9.850;2023-02-28T03:05:59;2.40;;;1.40;;
77322;SDS011;66384;51.052;9.850;2023-02-28T03:08:30;2.20;;;1.30;;
77322;SDS011;66384;51.052;9.850;2023-02-28T03:11:04;2.50;;;1.70;;
77322;SDS011;66384;51.052;9.850;2023-02-28T03:13:44;2.10;;;1.30;;
77322;SDS011;66384;51.052;9.850;2023-02-28T03:16:27;1.40;;;1.20;;
77322;SDS011;66384;51.052;9.850;2023-02-28T03:19:03;1.40;;;1.10;;
77322;SDS011;66384;51.052;9.850;2023-02-28T03:21:46;1.20;;;1.10;;
77322;SDS011;66384;51.052;9.850;2023-02-28T03:24:29;1.80;;;1.20;;
77322;SDS011;66384;51.052;9.850;2023-02-28T03:27:07;1.50;;;1.30;;
77322;SDS011;66384;51.052;9.850;2023-02-28T03:29:45;2.30;;;1.90;;
77322;SDS011;66384;51.052;9.850;2023-02-28T03:32:21;3.10;;;1.90;;
77322;SDS011;66384;51.052;9.850;2023-02-28T03:34:56;3.00;;;1.90;;
77322;SDS011;66384;51.052;9.850;2023-02-28T03:37:32;2.40;;;1.70;;
77322;SDS011;66384;51.052;9.850;2023-02-28T03:40:06;1.90;;;1.40;;
77322;SDS011;66384;51.052;9.850;2023-02-28T03:42:39;2.60;;;1.50;;
77322;SDS011;66384;51.052;9.850;2023-02-28T03:45:13;2.40;;;1.60;;
77322;SDS011;66384;51.052;9.850;2023-02-28T03:47:48;1.70;;;1.30;;
77322;SDS011;66384;51.052;9.850;2023-02-28T03:50:21;1.60;;;1.30;;
77322;SDS011;66384;51.052;9.850;2023-02-28T03:52:53;1.80;;;1.30;;
77322;SDS011;66384;51.052;9.850;2023-02-28T03:55:28;2.20;;;1.40;;
77322;SDS011;66384;51.052;9.850;2023-02-28T03:58:02;2.90;;;1.50;;
77322;SDS011;66384;51.052;9.850;2023-02-28T04:00:37;1.90;;;1.20;;
77322;SDS011;66384;51.052;9.850;2023-02-28T04:03:09;2.40;;;1.30;;
77322;SDS011;66384;51.052;9.850;2023-02-28T04:05:46;1.30;;;0.90;;
77322;SDS011;66384;51.052;9.850;2023-02-28T04:08:18;2.70;;;1.40;;
77322;SDS011;66384;51.052;9.850;2023-02-28T04:10:50;2.10;;;1.50;;
77322;SDS011;66384;51.052;9.850;2023-02-28T04:13:24;1.70;;;1.00;;
77322;SDS011;66384;51.052;9.850;2023-02-28T04:15:53;1.80;;;1.40;;
77322;SDS011;66384;51.052;9.850;2023-02-28T04:18:22;2.30;;;1.60;;
77322;SDS011;66384;51.052;9.850;2023-02-28T04:20:52;2.40;;;1.60;;
77322;SDS011;66384;51.052;9.850;2023-02-28T04:23:21;1.70;;;1.10;;
77322;SDS011;66384;51.052;9.850;2023-02-28T04:25:54;2.40;;;1.60;;
77322;SDS011;66384;51.052;9.850;2023-02-28T04:28:23;1.90;;;1.40;;
77322;SDS011;66384;51.052;9.850;2023-02-28T04:30:55;3.00;;;1.90;;
77322;SDS011;66384;51.052;9.850;2023-02-28T04:33:26;2.40;;;1.70;;
77322;SDS011;66384;51.052;9.850;2023-02-28T04:35:59;2.60;;;1.60;;
77322;SDS011;66384;51.052;9.850;2023-02-28T04:38:31;2.80;;;2.00;;
77322;SDS011;66384;51.052;9.850;2023-02-28T04:41:02;3.20;;;1.70;;
77322;SDS011;66384;51.052;9.850;2023-02-28T04:43:32;2.40;;;1.60;;
77322;SDS011;66384;51.052;9.850;2023-02-28T04:46:02;2.90;;;1.80;;
77322;SDS011;66384;51.052;9.850;2023-02-28T04:48:34;2.80;;;1.80;;
77322;SDS011;66384;51.052;9.850;2023-02-28T04:51:05;3.40;;;2.00;;
77322;SDS011;66384;51.052;9.850;2023-02-28T04:53:37;3.40;;;2.00;;
77322;SDS011;66384;51.052;9.850;2023-02-28T04:56:07;8.70;;;3.90;;
77322;SDS011;66384;51.052;9.850;2023-02-28T04:58:39;4.40;;;3.00;;
77322;SDS011;66384;51.052;9.850;2023-02-28T05:01:16;3.50;;;2.00;;
77322;SDS011;66384;51.052;9.850;2023-02-28T05:03:48;2.60;;;1.80;;
77322;SDS011;66384;51.052;9.850;2023-02-28T05:06:18;2.20;;;1.50;;
77322;SDS011;66384;51.052;9.850;2023-02-28T05:08:50;2.90;;;1.80;;
77322;SDS011;66384;51.052;9.850;2023-02-28T05:11:20;2.10;;;1.40;;
77322;SDS011;66384;51.052;9.850;2023-02-28T05:13:52;1.00;;;0.90;;
77322;SDS011;66384;51.052;9.850;2023-02-28T05:16:22;1.80;;;1.40;;
77322;SDS011;66384;51.052;9.850;2023-02-28T05:18:51;3.10;;;1.70;;
77322;SDS011;66384;51.052;9.850;2023-02-28T05:21:28;2.10;;;1.60;;
77322;SDS011;66384;51.052;9.850;2023-02-28T05:23:59;1.30;;;0.90;;
77322;SDS011;66384;51.052;9.850;2023-02-28T05:26:31;2.60;;;1.30;;
77322;SDS011;66384;51.052;9.850;2023-02-28T05:29:04;1.70;;;1.10;;
77322;SDS011;66384;51.052;9.850;2023-02-28T05:31:33;2.20;;;1.60;;
77322;SDS011;66384;51.052;9.850;2023-02-28T05:34:04;2.20;;;1.70;;
77322;SDS011;66384;51.052;9.850;2023-02-28T05:36:33;3.60;;;1.90;;
77322;SDS011;66384;51.052;9.850;2023-02-28T05:39:04;3.60;;;1.70;;
77322;SDS011;66384;51.052;9.850;2023-02-28T05:41:39;4.40;;;1.70;;
77322;SDS011;66384;51.052;9.850;2023-02-28T05:44:10;3.00;;;1.50;;
77322;SDS011;66384;51.052;9.850;2023-02-28T05:46:39;2.60;;;1.40;;
77322;SDS011;66384;51.052;9.850;2023-02-28T05:49:09;1.80;;;1.40;;
77322;SDS011;66384;51.052;9.850;2023-02-28T05:51:38;3.50;;;2.20;;
77322;SDS011;66384;51.052;9.850;2023-02-28T05:54:07;3.00;;;1.60;;
77322;SDS011;66384;51.052;9.850;2023-02-28T05:56:36;3.30;;;1.70;;
77322;SDS011;66384;51.052;9.850;2023-02-28T05:59:07;7.80;;;4.40;;
77322;SDS011;66384;51.052;9.850;2023-02-28T06:01:37;6.40;;;3.60;;
77322;SDS011;66384;51.052;9.850;2023-02-28T06:04:08;3.90;;;2.40;;
77322;SDS011;66384;51.052;9.850;2023-02-28T06:06:40;2.60;;;1.80;;
77322;SDS011;66384;51.052;9.850;2023-02-28T06:09:09;2.60;;;1.70;;
77322;SDS011;66384;51.052;9.850;2023-02-28T06:11:39;2.10;;;1.60;;
77322;SDS011;66384;51.052;9.850;2023-02-28T06:14:09;2.00;;;1.30;;
77322;SDS011;66384;51.052;9.850;2023-02-28T06:16:44;2.50;;;1.70;;
77322;SDS011;66384;51.052;9.850;2023-02-28T06:19:13;1.90;;;1.40;;
77322;SDS011;66384;51.052;9.850;2023-02-28T06:21:42;2.10;;;1.50;;
77322;SDS011;66384;51.052;9.850;2023-02-28T06:24:12;2.50;;;1.40;;
77322;SDS011;66384;51.052;9.850;2023-02-28T06:26:41;2.00;;;1.30;;
77322;SDS011;66384;51.052;9.850;2023-02-28T06:29:10;2.50;;;1.40;;
77322;SDS011;66384;51.052;9.850;2023-02-28T06:31:43;1.60;;;1.30;;
77322;SDS011;66384;51.052;9.850;2023-02-28T06:34:13;1.30;;;1.20;;
77322;SDS011;66384;51.052;9.850;2023-02-28T06:36:43;2.70;;;1.10;;
77322;SDS011;66384;51.052;9.850;2023-02-28T06:39:12;2.00;;;1.30;;
77322;SDS011;66384;51.052;9.850;2023-02-28T06:41:42;2.40;;;1.60;;
77322;SDS011;66384;51.052;9.850;2023-02-28T06:44:13;4.20;;;2.40;;
77322;SDS011;66384;51.052;9.850;2023-02-28T06:49:12;2.00;;;1.30;;
77322;SDS011;66384;51.052;9.850;2023-02-28T06:51:42;3.40;;;2.20;;
77322;SDS011;66384;51.052;9.850;2023-02-28T06:54:12;4.50;;;1.90;;
77322;SDS011;66384;51.052;9.850;2023-02-28T06:56:42;2.70;;;1.70;;
77322;SDS011;66384;51.052;9.850;2023-02-28T06:59:11;2.50;;;1.70;;
77322;SDS011;66384;51.052;9.850;2023-02-28T07:01:40;2.40;;;1.80;;
77322;SDS011;66384;51.052;9.850;2023-02-28T07:04:10;4.30;;;2.00;;
77322;SDS011;66384;51.052;9.850;2023-02-28T07:06:39;3.00;;;1.90;;
77322;SDS011;66384;51.052;9.850;2023-02-28T07:09:08;3.70;;;2.00;;
77322;SDS011;66384;51.052;9.850;2023-02-28T07:11:38;2.50;;;1.60;;
77322;SDS011;66384;51.052;9.850;2023-02-28T07:14:09;1.90;;;1.30;;
77322;SDS011;66384;51.052;9.850;2023-02-28T07:16:38;2.20;;;1.70;;
77322;SDS011;66384;51.052;9.850;2023-02-28T07:19:07;1.40;;;1.20;;
77322;SDS011;66384;51.052;9.850;2023-02-28T07:21:37;2.40;;;1.70;;
77322;SDS011;66384;51.052;9.850;2023-02-28T07:24:07;2.90;;;2.20;;
77322;SDS011;66384;51.052;9.850;2023-02-28T07:26:36;3.70;;;2.00;;
77322;SDS011;66384;51.052;9.850;2023-02-28T07:29:06;4.60;;;1.80;;
77322;SDS011;66384;51.052;9.850;2023-02-28T07:31:35;2.70;;;2.00;;
77322;SDS011;66384;51.052;9.850;2023-02-28T07:34:04;2.20;;;1.70;;
77322;SDS011;66384;51.052;9.850;2023-02-28T07:36:34;5.60;;;3.20;;
77322;SDS011;66384;51.052;9.850;2023-02-28T07:39:03;2.20;;;1.60;;
77322;SDS011;66384;51.052;9.850;2023-02-28T07:41:32;3.20;;;2.00;;
77322;SDS011;66384;51.052;9.850;2023-02-28T07:44:05;3.10;;;2.20;;
77322;SDS011;66384;51.052;9.850;2023-02-28T07:46:35;3.10;;;2.10;;
77322;SDS011;66384;51.052;9.850;2023-02-28T07:49:04;2.40;;;1.80;;
77322;SDS011;66384;51.052;9.850;2023-02-28T07:51:34;2.90;;;1.70;;
77322;SDS011;66384;51.052;9.850;2023-02-28T07:54:04;3.50;;;1.90;;
77322;SDS011;66384;51.052;9.850;2023-02-28T07:56:34;3.20;;;2.10;;
77322;SDS011;66384;51.052;9.850;2023-02-28T07:59:03;2.10;;;1.40;;
77322;SDS011;66384;51.052;9.850;2023-02-28T08:01:32;2.20;;;1.70;;
77322;SDS011;66384;51.052;9.850;2023-02-28T08:04:01;2.30;;;1.60;;
77322;SDS011;66384;51.052;9.850;2023-02-28T08:06:31;3.20;;;2.10;;
77322;SDS011;66384;51.052;9.850;2023-02-28T08:09:00;1.80;;;1.40;;
77322;SDS011;66384;51.052;9.850;2023-02-28T08:11:30;4.00;;;2.70;;
77322;SDS011;66384;51.052;9.850;2023-02-28T08:13:59;4.00;;;2.80;;
77322;SDS011;66384;51.052;9.850;2023-02-28T08:16:28;3.40;;;2.10;;
77322;SDS011;66384;51.052;9.850;2023-02-28T08:18:57;2.40;;;1.80;;
77322;SDS011;66384;51.052;9.850;2023-02-28T08:21:26;2.30;;;1.70;;
77322;SDS011;66384;51.052;9.850;2023-02-28T08:23:56;4.70;;;2.30;;
77322;SDS011;66384;51.052;9.850;2023-02-28T08:26:25;2.10;;;1.50;;
77322;SDS011;66384;51.052;9.850;2023-02-28T08:28:54;4.50;;;2.60;;
77322;SDS011;66384;51.052;9.850;2023-02-28T08:31:23;3.40;;;2.00;;
77322;SDS011;66384;51.052;9.850;2023-02-28T08:33:53;3.00;;;2.20;;
77322;SDS011;66384;51.052;9.850;2023-02-28T08:36:25;2.40;;;1.60;;
77322;SDS011;66384;51.052;9.850;2023-02-28T08:38:55;3.40;;;2.30;;
77322;SDS011;66384;51.052;9.850;2023-02-28T08:41:26;4.10;;;2.50;;
77322;SDS011;66384;51.052;9.850;2023-02-28T08:43:55;3.10;;;2.40;;
77322;SDS011;66384;51.052;9.850;2023-02-28T08:46:24;4.80;;;2.80;;
77322;SDS011;66384;51.052;9.850;2023-02-28T08:48:54;4.10;;;2.60;;
77322;SDS011;66384;51.052;9.850;2023-02-28T08:51:26;3.50;;;2.40;;
77322;SDS011;66384;51.052;9.850;2023-02-28T08:53:57;2.50;;;2.10;;
77322;SDS011;66384;51.052;9.850;2023-02-28T08:58:56;3.20;;;2.10;;
77322;SDS011;66384;51.052;9.850;2023-02-28T09:01:26;4.40;;;2.80;;
77322;SDS011;66384;51.052;9.850;2023-02-28T09:03:57;3.80;;;2.40;;
77322;SDS011;66384;51.052;9.850;2023-02-28T09:06:28;2.70;;;1.80;;
77322;SDS011;66384;51.052;9.850;2023-02-28T09:08:57;4.10;;;3.20;;
77322;SDS011;66384;51.052;9.850;2023-02-28T09:11:28;4.20;;;2.60;;
77322;SDS011;66384;51.052;9.850;2023-02-28T09:13:57;3.90;;;2.60;;
77322;SDS011;66384;51.052;9.850;2023-02-28T09:16:27;3.70;;;2.60;;
77322;SDS011;66384;51.052;9.850;2023-02-28T09:18:57;5.90;;;2.50;;
77322;SDS011;66384;51.052;9.850;2023-02-28T09:21:26;3.80;;;2.50;;
77322;SDS011;66384;51.052;9.850;2023-02-28T09:23:55;4.40;;;3.10;;
77322;SDS011;66384;51.052;9.850;2023-02-28T09:26:25;5.00;;;2.30;;
77322;SDS011;66384;51.052;9.850;2023-02-28T09:28:55;5.10;;;3.10;;
77322;SDS011;66384;51.052;9.850;2023-02-28T09:31:26;6.80;;;3.20;;
77322;SDS011;66384;51.052;9.850;2023-02-28T09:33:56;3.70;;;2.50;;
77322;SDS011;66384;51.052;9.850;2023-02-28T09:36:26;3.70;;;2.90;;
77322;SDS011;66384;51.052;9.850;2023-02-28T09:38:56;2.80;;;2.20;;
77322;SDS011;66384;51.052;9.850;2023-02-28T09:41:26;3.40;;;2.30;;
77322;SDS011;66384;51.052;9.850;2023-02-28T09:44:02;4.30;;;2.70;;
77322;SDS011;66384;51.052;9.850;2023-02-28T09:46:35;4.70;;;3.10;;
77322;SDS011;66384;51.052;9.850;2023-02-28T09:49:10;3.80;;;2.70;;
77322;SDS011;66384;51.052;9.850;2023-02-28T09:51:49;4.40;;;2.60;;
77322;SDS011;66384;51.052;9.850;2023-02-28T09:54:28;3.50;;;2.20;;
77322;SDS011;66384;51.052;9.850;2023-02-28T09:57:00;3.60;;;2.50;;
77322;SDS011;66384;51.052;9.850;2023-02-28T09:59:37;4.90;;;2.10;;
77322;SDS011;66384;51.052;9.850;2023-02-28T10:02:21;4.90;;;2.50;;
77322;SDS011;66384;51.052;9.850;2023-02-28T10:05:08;3.10;;;2.50;;
77322;SDS011;66384;51.052;9.850;2023-02-28T10:07:45;3.70;;;2.40;;
77322;SDS011;66384;51.052;9.850;2023-02-28T10:10:26;6.10;;;2.90;;
77322;SDS011;66384;51.052;9.850;2023-02-28T10:13:01;4.40;;;2.20;;
77322;SDS011;66384;51.052;9.850;2023-02-28T10:15:33;2.60;;;2.10;;
77322;SDS011;66384;51.052;9.850;2023-02-28T10:18:04;6.50;;;2.60;;
77322;SDS011;66384;51.052;9.850;2023-02-28T10:20:38;3.90;;;2.80;;
77322;SDS011;66384;51.052;9.850;2023-02-28T10:23:11;3.00;;;2.30;;
77322;SDS011;66384;51.052;9.850;2023-02-28T10:25:46;3.20;;;2.40;;
77322;SDS011;66384;51.052;9.850;2023-02-28T10:28:20;3.60;;;2.70;;
77322;SDS011;66384;51.052;9.850;2023-02-28T10:30:52;4.20;;;2.40;;
77322;SDS011;66384;51.052;9.850;2023-02-28T10:33:24;4.30;;;2.60;;
77322;SDS011;66384;51.052;9.850;2023-02-28T10:35:56;3.80;;;2.80;;
77322;SDS011;66384;51.052;9.850;2023-02-28T10:38:27;4.00;;;2.70;;
77322;SDS011;66384;51.052;9.850;2023-02-28T10:41:05;3.10;;;2.20;;
77322;SDS011;66384;51.052;9.850;2023-02-28T10:43:37;4.20;;;2.80;;
77322;SDS011;66384;51.052;9.850;2023-02-28T10:46:11;3.90;;;2.10;;
77322;SDS011;66384;51.052;9.850;2023-02-28T10:49:00;3.60;;;2.30;;
77322;SDS011;66384;51.052;9.850;2023-02-28T10:51:37;4.90;;;2.90;;
77322;SDS011;66384;51.052;9.850;2023-02-28T10:54:10;3.30;;;2.60;;
77322;SDS011;66384;51.052;9.850;2023-02-28T10:56:45;3.30;;;2.60;;
77322;SDS011;66384;51.052;9.850;2023-02-28T10:59:33;3.70;;;2.60;;
77322;SDS011;66384;51.052;9.850;2023-02-28T11:02:07;4.20;;;2.50;;
77322;SDS011;66384;51.052;9.850;2023-02-28T11:05:00;3.40;;;2.40;;
77322;SDS011;66384;51.052;9.850;2023-02-28T11:07:30;3.70;;;3.10;;
77322;SDS011;66384;51.052;9.850;2023-02-28T11:09:59;3.80;;;2.70;;
77322;SDS011;66384;51.052;9.850;2023-02-28T11:12:31;4.70;;;3.10;;
77322;SDS011;66384;51.052;9.850;2023-02-28T11:15:06;3.20;;;2.00;;
77322;SDS011;66384;51.052;9.850;2023-02-28T11:17:54;4.20;;;3.00;;
77322;SDS011;66384;51.052;9.850;2023-02-28T11:20:26;5.00;;;2.60;;
77322;SDS011;66384;51.052;9.850;2023-02-28T11:22:58;4.10;;;2.50;;
77322;SDS011;66384;51.052;9.850;2023-02-28T11:25:30;3.00;;;2.30;;
77322;SDS011;66384;51.052;9.850;2023-02-28T11:28:01;5.30;;;2.80;;
77322;SDS011;66384;51.052;9.850;2023-02-28T11:30:34;4.20;;;2.50;;
77322;SDS011;66384;51.052;9.850;2023-02-28T11:33:25;4.50;;;2.00;;
77322;SDS011;66384;51.052;9.850;2023-02-28T11:35:57;3.00;;;2.10;;
77322;SDS011;66384;51.052;9.850;2023-02-28T11:38:28;3.80;;;2.50;;
77322;SDS011;66384;51.052;9.850;2023-02-28T11:41:05;3.10;;;2.40;;
77322;SDS011;66384;51.052;9.850;2023-02-28T11:43:50;3.90;;;2.50;;
77322;SDS011;66384;51.052;9.850;2023-02-28T11:46:33;3.70;;;2.80;;
77322;SDS011;66384;51.052;9.850;2023-02-28T11:49:11;3.70;;;2.10;;
77322;SDS011;66384;51.052;9.850;2023-02-28T11:51:53;3.90;;;2.40;;
77322;SDS011;66384;51.052;9.850;2023-02-28T11:54:35;2.80;;;2.20;;
77322;SDS011;66384;51.052;9.850;2023-02-28T11:57:24;4.50;;;2.90;;
77322;SDS011;66384;51.052;9.850;2023-02-28T12:00:08;9.60;;;6.20;;
77322;SDS011;66384;51.052;9.850;2023-02-28T12:02:53;9.70;;;6.20;;
77322;SDS011;66384;51.052;9.850;2023-02-28T12:05:34;3.90;;;3.00;;
77322;SDS011;66384;51.052;9.850;2023-02-28T12:08:18;4.10;;;2.70;;
77322;SDS011;66384;51.052;9.850;2023-02-28T12:11:03;3.30;;;2.50;;
77322;SDS011;66384;51.052;9.850;2023-02-28T12:13:43;4.10;;;2.70;;
77322;SDS011;66384;51.052;9.850;2023-02-28T12:16:26;3.20;;;2.30;;
77322;SDS011;66384;51.052;9.850;2023-02-28T12:19:06;3.20;;;2.60;;
77322;SDS011;66384;51.052;9.850;2023-02-28T12:25:06;4.10;;;3.10;;
77322;SDS011;66384;51.052;9.850;2023-02-28T12:30:21;4.20;;;3.00;;
77322;SDS011;66384;51.052;9.850;2023-02-28T12:32:52;3.70;;;2.80;;
77322;SDS011;66384;51.052;9.850;2023-02-28T12:35:26;3.40;;;2.90;;
77322;SDS011;66384;51.052;9.850;2023-02-28T12:38:02;4.70;;;2.70;;
77322;SDS011;66384;51.052;9.850;2023-02-28T12:40:41;3.40;;;2.50;;
77322;SDS011;66384;51.052;9.850;2023-02-28T12:43:16;4.00;;;3.00;;
77322;SDS011;66384;51.052;9.850;2023-02-28T12:45:48;4.50;;;2.60;;
77322;SDS011;66384;51.052;9.850;2023-02-28T12:48:22;3.80;;;2.90;;
77322;SDS011;66384;51.052;9.850;2023-02-28T12:50:56;4.30;;;2.90;;
77322;SDS011;66384;51.052;9.850;2023-02-28T12:53:27;3.90;;;2.60;;
77322;SDS011;66384;51.052;9.850;2023-02-28T12:56:07;4.60;;;2.60;;
77322;SDS011;66384;51.052;9.850;2023-02-28T12:58:47;3.40;;;2.70;;
77322;SDS011;66384;51.052;9.850;2023-02-28T13:01:26;3.30;;;2.60;;
77322;SDS011;66384;51.052;9.850;2023-02-28T13:07:13;3.40;;;2.60;;
77322;SDS011;66384;51.052;9.850;2023-02-28T13:09:57;3.80;;;3.20;;
77322;SDS011;66384;51.052;9.850;2023-02-28T13:12:30;3.90;;;3.00;;
77322;SDS011;66384;51.052;9.850;2023-02-28T13:15:04;5.00;;;2.90;;
77322;SDS011;66384;51.052;9.850;2023-02-28T13:17:38;4.60;;;2.90;;
77322;SDS011;66384;51.052;9.850;2023-02-28T13:20:15;4.50;;;3.50;;
77322;SDS011;66384;51.052;9.850;2023-02-28T13:22:47;3.50;;;2.60;;
77322;SDS011;66384;51.052;9.850;2023-02-28T13:31:27;5.00;;;3.00;;
77322;SDS011;66384;51.052;9.850;2023-02-28T13:34:06;3.60;;;2.60;;
77322;SDS011;66384;51.052;9.850;2023-02-28T13:36:43;4.10;;;2.80;;
77322;SDS011;66384;51.052;9.850;2023-02-28T13:42:33;4.40;;;3.40;;
77322;SDS011;66384;51.052;9.850;2023-02-28T13:45:23;4.90;;;3.30;;
77322;SDS011;66384;51.052;9.850;2023-02-28T13:47:58;4.50;;;3.60;;
77322;SDS011;66384;51.052;9.850;2023-02-28T13:50:30;5.10;;;3.00;;
77322;SDS011;66384;51.052;9.850;2023-02-28T13:53:12;3.90;;;2.80;;
77322;SDS011;66384;51.052;9.850;2023-02-28T13:56:01;5.90;;;3.90;;
77322;SDS011;66384;51.052;9.850;2023-02-28T13:58:40;4.00;;;3.30;;
77322;SDS011;66384;51.052;9.850;2023-02-28T14:01:21;8.00;;;3.60;;
77322;SDS011;66384;51.052;9.850;2023-02-28T14:04:01;4.20;;;3.40;;
77322;SDS011;66384;51.052;9.850;2023-02-28T14:09:21;3.80;;;2.80;;
77322;SDS011;66384;51.052;9.850;2023-02-28T14:11:54;3.70;;;2.70;;
77322;SDS011;66384;51.052;9.850;2023-02-28T14:17:24;3.60;;;2.60;;
77322;SDS011;66384;51.052;9.850;2023-02-28T14:19:53;5.30;;;3.00;;
77322;SDS011;66384;51.052;9.850;2023-02-28T14:25:22;5.20;;;3.10;;
77322;SDS011;66384;51.052;9.850;2023-02-28T14:28:01;4.10;;;3.00;;
77322;SDS011;66384;51.052;9.850;2023-02-28T14:30:43;5.30;;;3.20;;
77322;SDS011;66384;51.052;9.850;2023-02-28T14:33:30;5.20;;;3.30;;
77322;SDS011;66384;51.052;9.850;2023-02-28T14:36:16;5.30;;;3.30;;
77322;SDS011;66384;51.052;9.850;2023-02-28T14:38:50;4.50;;;3.20;;
77322;SDS011;66384;51.052;9.850;2023-02-28T14:41:23;4.10;;;3.60;;
77322;SDS011;66384;51.052;9.850;2023-02-28T14:43:57;3.80;;;2.90;;
77322;SDS011;66384;51.052;9.850;2023-02-28T14:46:28;5.10;;;3.40;;
77322;SDS011;66384;51.052;9.850;2023-02-28T14:49:04;3.70;;;2.90;;
77322;SDS011;66384;51.052;9.850;2023-02-28T14:51:40;6.10;;;4.10;;
77322;SDS011;66384;51.052;9.850;2023-02-28T14:54:13;4.60;;;3.40;;
77322;SDS011;66384;51.052;9.850;2023-02-28T14:56:48;4.60;;;3.90;;
77322;SDS011;66384;51.052;9.850;2023-02-28T14:59:26;3.90;;;3.00;;
77322;SDS011;66384;51.052;9.850;2023-02-28T15:02:17;5.50;;;3.30;;
77322;SDS011;66384;51.052;9.850;2023-02-28T15:04:56;4.90;;;3.10;;
77322;SDS011;66384;51.052;9.850;2023-02-28T15:07:27;9.30;;;3.80;;
77322;SDS011;66384;51.052;9.850;2023-02-28T15:10:13;6.40;;;4.40;;
77322;SDS011;66384;51.052;9.850;2023-02-28T15:12:48;6.00;;;4.10;;
77322;SDS011;66384;51.052;9.850;2023-02-28T15:15:22;5.10;;;3.70;;
77322;SDS011;66384;51.052;9.850;2023-02-28T15:18:03;5.10;;;3.30;;
77322;SDS011;66384;51.052;9.850;2023-02-28T15:20:36;4.80;;;3.30;;
77322;SDS011;66384;51.052;9.850;2023-02-28T15:23:09;4.60;;;3.60;;
77322;SDS011;66384;51.052;9.850;2023-02-28T15:25:40;5.20;;;3.60;;
77322;SDS011;66384;51.052;9.850;2023-02-28T15:28:12;4.40;;;4.00;;
77322;SDS011;66384;51.052;9.850;2023-02-28T15:30:53;4.60;;;3.20;;
77322;SDS011;66384;51.052;9.850;2023-02-28T15:33:25;4.40;;;3.40;;
77322;SDS011;66384;51.052;9.850;2023-02-28T15:36:07;5.20;;;3.40;;
77322;SDS011;66384;51.052;9.850;2023-02-28T15:38:42;5.70;;;4.50;;
77322;SDS011;66384;51.052;9.850;2023-02-28T15:41:20;7.90;;;5.10;;
77322;SDS011;66384;51.052;9.850;2023-02-28T15:46:53;5.30;;;4.40;;
77322;SDS011;66384;51.052;9.850;2023-02-28T15:49:24;4.70;;;3.70;;
77322;SDS011;66384;51.052;9.850;2023-02-28T15:51:55;5.50;;;3.60;;
77322;SDS011;66384;51.052;9.850;2023-02-28T15:54:28;5.10;;;4.00;;
77322;SDS011;66384;51.052;9.850;2023-02-28T15:57:03;7.10;;;3.90;;
77322;SDS011;66384;51.052;9.850;2023-02-28T15:59:35;4.30;;;3.90;;
77322;SDS011;66384;51.052;9.850;2023-02-28T16:02:15;5.70;;;3.60;;
77322;SDS011;66384;51.052;9.850;2023-02-28T16:05:00;4.20;;;3.10;;
77322;SDS011;66384;51.052;9.850;2023-02-28T16:07:45;6.90;;;4.00;;